sensor_id;sensor_type;location;lat;lon;timestamp;P1;durP1;ratioP1;P2;durP2;ratioP2
9496;SDS011;4786;51.270;4.456;2022-10-17T00:01:47;6.33;;;5.73;;
9496;SDS011;4786;51.270;4.456;2022-10-17T00:04:13;6.77;;;5.60;;
9496;SDS011;4786;51.270;4.456;2022-10-17T00:06:39;6.90;;;6.30;;
9496;SDS011;4786;51.270;4.456;2022-10-17T00:09:06;9.00;;;6.00;;
9496;SDS011;4786;51.270;4.456;2022-10-17T00:11:32;8.57;;;6.40;;
9496;SDS011;4786;51.270;4.456;2022-10-17T00:13:58;7.30;;;6.10;;
9496;SDS011;4786;51.270;4.456;2022-10-17T00:18:55;7.40;;;6.10;;
9496;SDS011;4786;51.270;4.456;2022-10-17T00:21:21;6.10;;;5.50;;
9496;SDS011;4786;51.270;4.456;2022-10-17T00:23:48;8.13;;;5.83;;
9496;SDS011;4786;51.270;4.456;2022-10-17T00:26:14;10.37;;;7.00;;
9496;SDS011;4786;51.270;4.456;2022-10-17T00:28:41;7.20;;;6.47;;
9496;SDS011;4786;51.270;4.456;2022-10-17T00:31:07;6.77;;;6.17;;
9496;SDS011;4786;51.270;4.456;2022-10-17T00:33:34;8.37;;;6.50;;
9496;SDS011;4786;51.270;4.456;2022-10-17T00:36:01;8.37;;;6.33;;
9496;SDS011;4786;51.270;4.456;2022-10-17T00:38:49;7.43;;;6.73;;
9496;SDS011;4786;51.270;4.456;2022-10-17T00:41:21;7.50;;;6.50;;
9496;SDS011;4786;51.270;4.456;2022-10-17T00:46:35;15.13;;;7.40;;
9496;SDS011;4786;51.270;4.456;2022-10-17T00:49:05;9.47;;;7.00;;
9496;SDS011;4786;51.270;4.456;2022-10-17T00:54:38;8.67;;;7.03;;
9496;SDS011;4786;51.270;4.456;2022-10-17T00:57:07;7.00;;;6.30;;
9496;SDS011;4786;51.270;4.456;2022-10-17T00:59:33;13.17;;;7.00;;
9496;SDS011;4786;51.270;4.456;2022-10-17T01:02:05;8.73;;;6.80;;
9496;SDS011;4786;51.270;4.456;2022-10-17T01:04:38;7.23;;;6.57;;
9496;SDS011;4786;51.270;4.456;2022-10-17T01:07:07;8.00;;;7.30;;
9496;SDS011;4786;51.270;4.456;2022-10-17T01:09:33;6.60;;;5.90;;
9496;SDS011;4786;51.270;4.456;2022-10-17T01:12:06;6.93;;;6.33;;
9496;SDS011;4786;51.270;4.456;2022-10-17T01:22:26;10.53;;;6.87;;
9496;SDS011;4786;51.270;4.456;2022-10-17T01:44:14;8.83;;;6.73;;
9496;SDS011;4786;51.270;4.456;2022-10-17T01:46:46;7.13;;;6.43;;
9496;SDS011;4786;51.270;4.456;2022-10-17T01:49:17;6.63;;;5.77;;
9496;SDS011;4786;51.270;4.456;2022-10-17T01:51:49;11.70;;;6.90;;
9496;SDS011;4786;51.270;4.456;2022-10-17T01:54:24;8.10;;;6.63;;
9496;SDS011;4786;51.270;4.456;2022-10-17T01:56:55;8.83;;;6.63;;
9496;SDS011;4786;51.270;4.456;2022-10-17T01:59:27;7.70;;;6.20;;
9496;SDS011;4786;51.270;4.456;2022-10-17T02:01:59;9.73;;;6.73;;
9496;SDS011;4786;51.270;4.456;2022-10-17T02:04:26;8.97;;;6.90;;
9496;SDS011;4786;51.270;4.456;2022-10-17T02:06:52;8.53;;;6.43;;
9496;SDS011;4786;51.270;4.456;2022-10-17T02:09:24;7.83;;;6.50;;
9496;SDS011;4786;51.270;4.456;2022-10-17T02:17:59;8.20;;;6.03;;
9496;SDS011;4786;51.270;4.456;2022-10-17T02:20:50;6.97;;;5.50;;
9496;SDS011;4786;51.270;4.456;2022-10-17T02:23:36;8.00;;;6.63;;
9496;SDS011;4786;51.270;4.456;2022-10-17T02:29:20;7.37;;;6.53;;
9496;SDS011;4786;51.270;4.456;2022-10-17T02:31:54;7.07;;;6.37;;
9496;SDS011;4786;51.270;4.456;2022-10-17T02:34:29;12.03;;;7.37;;
9496;SDS011;4786;51.270;4.456;2022-10-17T02:37:08;7.53;;;6.70;;
9496;SDS011;4786;51.270;4.456;2022-10-17T02:39:37;10.63;;;6.50;;
9496;SDS011;4786;51.270;4.456;2022-10-17T02:42:06;7.30;;;6.47;;
9496;SDS011;4786;51.270;4.456;2022-10-17T02:44:36;8.10;;;7.03;;
9496;SDS011;4786;51.270;4.456;2022-10-17T02:49:37;6.30;;;5.60;;
9496;SDS011;4786;51.270;4.456;2022-10-17T02:52:16;7.43;;;6.40;;
9496;SDS011;4786;51.270;4.456;2022-10-17T02:54:58;7.83;;;6.77;;
9496;SDS011;4786;51.270;4.456;2022-10-17T02:57:37;7.40;;;6.70;;
9496;SDS011;4786;51.270;4.456;2022-10-17T03:00:07;7.83;;;7.03;;
9496;SDS011;4786;51.270;4.456;2022-10-17T03:05:09;6.97;;;6.37;;
9496;SDS011;4786;51.270;4.456;2022-10-17T03:07:37;9.07;;;6.47;;
9496;SDS011;4786;51.270;4.456;2022-10-17T03:10:03;7.20;;;6.47;;
9496;SDS011;4786;51.270;4.456;2022-10-17T03:12:29;7.40;;;6.23;;
9496;SDS011;4786;51.270;4.456;2022-10-17T03:14:55;8.53;;;6.03;;
9496;SDS011;4786;51.270;4.456;2022-10-17T03:17:21;8.30;;;6.17;;
9496;SDS011;4786;51.270;4.456;2022-10-17T03:19:47;6.67;;;6.00;;
9496;SDS011;4786;51.270;4.456;2022-10-17T03:22:13;7.70;;;6.47;;
9496;SDS011;4786;51.270;4.456;2022-10-17T03:24:39;7.37;;;6.20;;
9496;SDS011;4786;51.270;4.456;2022-10-17T03:27:05;6.23;;;5.73;;
9496;SDS011;4786;51.270;4.456;2022-10-17T03:29:30;10.87;;;6.97;;
9496;SDS011;4786;51.270;4.456;2022-10-17T03:31:57;6.73;;;6.13;;
9496;SDS011;4786;51.270;4.456;2022-10-17T03:34:23;8.37;;;6.33;;
9496;SDS011;4786;51.270;4.456;2022-10-17T03:36:48;7.10;;;6.27;;
9496;SDS011;4786;51.270;4.456;2022-10-17T03:39:15;6.70;;;6.10;;
9496;SDS011;4786;51.270;4.456;2022-10-17T03:41:41;7.57;;;5.97;;
9496;SDS011;4786;51.270;4.456;2022-10-17T03:44:07;6.93;;;6.20;;
9496;SDS011;4786;51.270;4.456;2022-10-17T03:46:32;7.03;;;6.33;;
9496;SDS011;4786;51.270;4.456;2022-10-17T03:48:58;10.13;;;6.70;;
9496;SDS011;4786;51.270;4.456;2022-10-17T03:51:24;7.07;;;6.10;;
9496;SDS011;4786;51.270;4.456;2022-10-17T03:53:50;7.83;;;6.23;;
9496;SDS011;4786;51.270;4.456;2022-10-17T03:56:17;6.90;;;6.20;;
9496;SDS011;4786;51.270;4.456;2022-10-17T03:58:45;9.17;;;6.60;;
9496;SDS011;4786;51.270;4.456;2022-10-17T04:01:12;8.73;;;7.00;;
9496;SDS011;4786;51.270;4.456;2022-10-17T04:03:41;6.87;;;6.27;;
9496;SDS011;4786;51.270;4.456;2022-10-17T04:06:07;10.30;;;6.90;;
9496;SDS011;4786;51.270;4.456;2022-10-17T04:08:34;8.50;;;6.83;;
9496;SDS011;4786;51.270;4.456;2022-10-17T04:11:00;8.67;;;7.17;;
9496;SDS011;4786;51.270;4.456;2022-10-17T04:13:27;8.17;;;6.97;;
9496;SDS011;4786;51.270;4.456;2022-10-17T04:18:21;6.77;;;6.00;;
9496;SDS011;4786;51.270;4.456;2022-10-17T04:20:47;10.63;;;7.57;;
9496;SDS011;4786;51.270;4.456;2022-10-17T04:23:13;8.73;;;6.20;;
9496;SDS011;4786;51.270;4.456;2022-10-17T04:25:39;8.67;;;7.07;;
9496;SDS011;4786;51.270;4.456;2022-10-17T04:28:05;6.57;;;5.97;;
9496;SDS011;4786;51.270;4.456;2022-10-17T04:30:31;10.47;;;6.93;;
9496;SDS011;4786;51.270;4.456;2022-10-17T04:32:57;9.63;;;6.70;;
9496;SDS011;4786;51.270;4.456;2022-10-17T04:35:22;6.80;;;6.00;;
9496;SDS011;4786;51.270;4.456;2022-10-17T04:37:48;7.20;;;6.37;;
9496;SDS011;4786;51.270;4.456;2022-10-17T04:40:14;7.00;;;6.23;;
9496;SDS011;4786;51.270;4.456;2022-10-17T04:42:40;6.47;;;5.87;;
9496;SDS011;4786;51.270;4.456;2022-10-17T04:45:05;6.80;;;5.93;;
9496;SDS011;4786;51.270;4.456;2022-10-17T04:47:32;8.13;;;6.50;;
9496;SDS011;4786;51.270;4.456;2022-10-17T04:49:58;7.80;;;6.20;;
9496;SDS011;4786;51.270;4.456;2022-10-17T04:52:24;8.10;;;6.40;;
9496;SDS011;4786;51.270;4.456;2022-10-17T04:54:50;7.00;;;6.30;;
9496;SDS011;4786;51.270;4.456;2022-10-17T04:57:17;10.47;;;7.17;;
9496;SDS011;4786;51.270;4.456;2022-10-17T04:59:43;9.73;;;6.83;;
9496;SDS011;4786;51.270;4.456;2022-10-17T05:02:09;12.20;;;6.53;;
9496;SDS011;4786;51.270;4.456;2022-10-17T05:04:35;9.10;;;6.00;;
9496;SDS011;4786;51.270;4.456;2022-10-17T05:07:01;9.17;;;6.77;;
9496;SDS011;4786;51.270;4.456;2022-10-17T05:09:28;9.17;;;6.90;;
9496;SDS011;4786;51.270;4.456;2022-10-17T05:11:54;8.83;;;6.50;;
9496;SDS011;4786;51.270;4.456;2022-10-17T05:14:20;10.00;;;6.00;;
9496;SDS011;4786;51.270;4.456;2022-10-17T05:16:46;6.50;;;5.90;;
9496;SDS011;4786;51.270;4.456;2022-10-17T05:19:12;8.07;;;6.60;;
9496;SDS011;4786;51.270;4.456;2022-10-17T05:21:38;8.33;;;6.80;;
9496;SDS011;4786;51.270;4.456;2022-10-17T05:24:04;8.47;;;7.40;;
9496;SDS011;4786;51.270;4.456;2022-10-17T05:26:31;7.87;;;7.00;;
9496;SDS011;4786;51.270;4.456;2022-10-17T05:28:58;10.83;;;7.33;;
9496;SDS011;4786;51.270;4.456;2022-10-17T05:31:26;8.87;;;6.80;;
9496;SDS011;4786;51.270;4.456;2022-10-17T05:33:54;8.33;;;6.83;;
9496;SDS011;4786;51.270;4.456;2022-10-17T05:36:20;8.10;;;6.83;;
9496;SDS011;4786;51.270;4.456;2022-10-17T05:38:49;9.57;;;6.70;;
9496;SDS011;4786;51.270;4.456;2022-10-17T05:41:16;9.33;;;6.50;;
9496;SDS011;4786;51.270;4.456;2022-10-17T05:43:42;9.97;;;7.00;;
9496;SDS011;4786;51.270;4.456;2022-10-17T05:46:08;8.83;;;6.47;;
9496;SDS011;4786;51.270;4.456;2022-10-17T05:48:35;7.37;;;6.67;;
9496;SDS011;4786;51.270;4.456;2022-10-17T05:51:02;8.37;;;6.77;;
9496;SDS011;4786;51.270;4.456;2022-10-17T05:53:31;9.07;;;6.60;;
9496;SDS011;4786;51.270;4.456;2022-10-17T05:55:59;11.00;;;7.10;;
9496;SDS011;4786;51.270;4.456;2022-10-17T05:58:28;9.73;;;6.70;;
9496;SDS011;4786;51.270;4.456;2022-10-17T06:00:56;8.63;;;6.73;;
9496;SDS011;4786;51.270;4.456;2022-10-17T06:03:23;8.03;;;6.30;;
9496;SDS011;4786;51.270;4.456;2022-10-17T06:05:49;6.93;;;6.23;;
9496;SDS011;4786;51.270;4.456;2022-10-17T06:08:16;10.97;;;7.13;;
9496;SDS011;4786;51.270;4.456;2022-10-17T06:10:42;7.10;;;6.40;;
9496;SDS011;4786;51.270;4.456;2022-10-17T06:13:08;9.90;;;6.60;;
9496;SDS011;4786;51.270;4.456;2022-10-17T06:15:34;7.03;;;6.33;;
9496;SDS011;4786;51.270;4.456;2022-10-17T06:17:59;7.40;;;6.70;;
9496;SDS011;4786;51.270;4.456;2022-10-17T06:20:25;7.00;;;6.10;;
9496;SDS011;4786;51.270;4.456;2022-10-17T06:22:51;7.60;;;6.80;;
9496;SDS011;4786;51.270;4.456;2022-10-17T06:25:17;7.03;;;6.20;;
9496;SDS011;4786;51.270;4.456;2022-10-17T06:27:42;8.53;;;7.17;;
9496;SDS011;4786;51.270;4.456;2022-10-17T06:30:08;9.87;;;6.77;;
9496;SDS011;4786;51.270;4.456;2022-10-17T06:32:34;8.70;;;6.70;;
9496;SDS011;4786;51.270;4.456;2022-10-17T06:35:00;7.67;;;6.80;;
9496;SDS011;4786;51.270;4.456;2022-10-17T06:37:29;7.70;;;6.83;;
9496;SDS011;4786;51.270;4.456;2022-10-17T06:39:56;9.37;;;7.23;;
9496;SDS011;4786;51.270;4.456;2022-10-17T06:42:23;7.60;;;6.90;;
9496;SDS011;4786;51.270;4.456;2022-10-17T06:44:48;12.70;;;6.80;;
9496;SDS011;4786;51.270;4.456;2022-10-17T06:47:14;8.67;;;6.77;;
9496;SDS011;4786;51.270;4.456;2022-10-17T06:49:40;9.37;;;7.10;;
9496;SDS011;4786;51.270;4.456;2022-10-17T06:52:06;11.20;;;6.90;;
9496;SDS011;4786;51.270;4.456;2022-10-17T06:54:32;12.93;;;7.60;;
9496;SDS011;4786;51.270;4.456;2022-10-17T06:56:58;11.37;;;7.77;;
9496;SDS011;4786;51.270;4.456;2022-10-17T06:59:24;16.97;;;8.67;;
9496;SDS011;4786;51.270;4.456;2022-10-17T07:01:49;18.00;;;8.70;;
9496;SDS011;4786;51.270;4.456;2022-10-17T07:04:15;14.07;;;7.83;;
9496;SDS011;4786;51.270;4.456;2022-10-17T07:06:41;27.70;;;8.47;;
9496;SDS011;4786;51.270;4.456;2022-10-17T07:09:07;19.90;;;7.87;;
9496;SDS011;4786;51.270;4.456;2022-10-17T07:11:33;13.63;;;7.93;;
9496;SDS011;4786;51.270;4.456;2022-10-17T07:13:59;8.47;;;7.00;;
9496;SDS011;4786;51.270;4.456;2022-10-17T07:16:25;7.93;;;6.60;;
9496;SDS011;4786;51.270;4.456;2022-10-17T07:18:52;8.80;;;6.43;;
9496;SDS011;4786;51.270;4.456;2022-10-17T07:21:18;16.93;;;7.50;;
9496;SDS011;4786;51.270;4.456;2022-10-17T07:23:44;11.23;;;6.93;;
9496;SDS011;4786;51.270;4.456;2022-10-17T07:26:13;9.73;;;6.27;;
9496;SDS011;4786;51.270;4.456;2022-10-17T07:28:40;9.90;;;6.67;;
9496;SDS011;4786;51.270;4.456;2022-10-17T07:31:10;9.43;;;6.30;;
9496;SDS011;4786;51.270;4.456;2022-10-17T07:33:38;9.47;;;6.60;;
9496;SDS011;4786;51.270;4.456;2022-10-17T07:36:05;10.10;;;6.60;;
9496;SDS011;4786;51.270;4.456;2022-10-17T07:38:32;9.73;;;6.70;;
9496;SDS011;4786;51.270;4.456;2022-10-17T07:40:59;14.50;;;7.17;;
9496;SDS011;4786;51.270;4.456;2022-10-17T07:43:26;9.57;;;6.67;;
9496;SDS011;4786;51.270;4.456;2022-10-17T07:45:53;11.90;;;6.13;;
9496;SDS011;4786;51.270;4.456;2022-10-17T07:48:19;8.23;;;6.37;;
9496;SDS011;4786;51.270;4.456;2022-10-17T07:50:46;10.67;;;7.07;;
9496;SDS011;4786;51.270;4.456;2022-10-17T07:53:12;7.67;;;6.20;;
9496;SDS011;4786;51.270;4.456;2022-10-17T07:55:38;10.43;;;6.60;;
9496;SDS011;4786;51.270;4.456;2022-10-17T07:58:05;10.43;;;6.80;;
9496;SDS011;4786;51.270;4.456;2022-10-17T08:00:32;10.00;;;6.57;;
9496;SDS011;4786;51.270;4.456;2022-10-17T08:02:57;9.50;;;5.90;;
9496;SDS011;4786;51.270;4.456;2022-10-17T08:05:23;10.50;;;5.83;;
9496;SDS011;4786;51.270;4.456;2022-10-17T08:07:49;8.47;;;6.00;;
9496;SDS011;4786;51.270;4.456;2022-10-17T08:10:15;10.63;;;6.40;;
9496;SDS011;4786;51.270;4.456;2022-10-17T08:12:41;9.43;;;5.83;;
9496;SDS011;4786;51.270;4.456;2022-10-17T08:15:07;8.30;;;5.80;;
9496;SDS011;4786;51.270;4.456;2022-10-17T08:17:34;6.00;;;5.40;;
9496;SDS011;4786;51.270;4.456;2022-10-17T08:20:01;9.00;;;5.37;;
9496;SDS011;4786;51.270;4.456;2022-10-17T08:22:27;8.23;;;6.40;;
9496;SDS011;4786;51.270;4.456;2022-10-17T08:24:53;9.93;;;5.73;;
9496;SDS011;4786;51.270;4.456;2022-10-17T08:27:19;12.83;;;6.30;;
9496;SDS011;4786;51.270;4.456;2022-10-17T08:29:52;8.10;;;5.53;;
9496;SDS011;4786;51.270;4.456;2022-10-17T08:32:23;8.17;;;5.80;;
9496;SDS011;4786;51.270;4.456;2022-10-17T08:34:51;7.77;;;5.67;;
9496;SDS011;4786;51.270;4.456;2022-10-17T08:37:18;10.40;;;6.10;;
9496;SDS011;4786;51.270;4.456;2022-10-17T08:39:43;9.20;;;5.70;;
9496;SDS011;4786;51.270;4.456;2022-10-17T08:45:29;6.10;;;5.07;;
9496;SDS011;4786;51.270;4.456;2022-10-17T08:48:01;8.73;;;5.13;;
9496;SDS011;4786;51.270;4.456;2022-10-17T08:53:08;5.80;;;5.17;;
9496;SDS011;4786;51.270;4.456;2022-10-17T08:55:48;8.07;;;5.47;;
9496;SDS011;4786;51.270;4.456;2022-10-17T08:58:22;8.47;;;5.67;;
9496;SDS011;4786;51.270;4.456;2022-10-17T09:03:38;7.50;;;5.60;;
9496;SDS011;4786;51.270;4.456;2022-10-17T09:06:17;7.40;;;5.60;;
9496;SDS011;4786;51.270;4.456;2022-10-17T09:11:51;7.63;;;4.97;;
9496;SDS011;4786;51.270;4.456;2022-10-17T09:20:11;6.77;;;4.87;;
9496;SDS011;4786;51.270;4.456;2022-10-17T09:22:47;6.67;;;5.00;;
9496;SDS011;4786;51.270;4.456;2022-10-17T09:25:21;5.63;;;5.03;;
9496;SDS011;4786;51.270;4.456;2022-10-17T09:27:51;6.27;;;5.10;;
9496;SDS011;4786;51.270;4.456;2022-10-17T09:30:31;9.00;;;5.37;;
9496;SDS011;4786;51.270;4.456;2022-10-17T09:33:08;6.80;;;5.00;;
9496;SDS011;4786;51.270;4.456;2022-10-17T09:35:38;7.73;;;5.50;;
9496;SDS011;4786;51.270;4.456;2022-10-17T09:38:10;6.00;;;5.00;;
9496;SDS011;4786;51.270;4.456;2022-10-17T09:40:43;9.63;;;6.23;;
9496;SDS011;4786;51.270;4.456;2022-10-17T09:43:11;6.97;;;5.70;;
9496;SDS011;4786;51.270;4.456;2022-10-17T09:45:41;12.23;;;6.33;;
9496;SDS011;4786;51.270;4.456;2022-10-17T09:48:25;6.83;;;5.07;;
9496;SDS011;4786;51.270;4.456;2022-10-17T09:50:57;11.57;;;5.50;;
9496;SDS011;4786;51.270;4.456;2022-10-17T09:53:26;7.90;;;5.13;;
9496;SDS011;4786;51.270;4.456;2022-10-17T09:55:58;7.57;;;4.57;;
9496;SDS011;4786;51.270;4.456;2022-10-17T10:01:25;8.70;;;4.93;;
9496;SDS011;4786;51.270;4.456;2022-10-17T10:06:37;7.00;;;5.20;;
9496;SDS011;4786;51.270;4.456;2022-10-17T10:09:04;11.53;;;5.87;;
9496;SDS011;4786;51.270;4.456;2022-10-17T10:14:27;5.83;;;5.07;;
9496;SDS011;4786;51.270;4.456;2022-10-17T10:16:57;5.33;;;4.60;;
9496;SDS011;4786;51.270;4.456;2022-10-17T10:19:28;7.17;;;4.80;;
9496;SDS011;4786;51.270;4.456;2022-10-17T10:21:57;8.13;;;5.00;;
9496;SDS011;4786;51.270;4.456;2022-10-17T10:24:25;9.70;;;5.57;;
9496;SDS011;4786;51.270;4.456;2022-10-17T10:26:52;6.83;;;5.27;;
9496;SDS011;4786;51.270;4.456;2022-10-17T10:31:46;6.73;;;5.27;;
9496;SDS011;4786;51.270;4.456;2022-10-17T10:36:54;9.73;;;5.80;;
9496;SDS011;4786;51.270;4.456;2022-10-17T10:41:56;6.73;;;4.97;;
9496;SDS011;4786;51.270;4.456;2022-10-17T10:44:23;6.50;;;5.27;;
9496;SDS011;4786;51.270;4.456;2022-10-17T10:47:06;6.00;;;5.30;;
9496;SDS011;4786;51.270;4.456;2022-10-17T10:49:38;7.03;;;5.67;;
9496;SDS011;4786;51.270;4.456;2022-10-17T10:52:05;7.35;;;6.35;;
9496;SDS011;4786;51.270;4.456;2022-10-17T10:54:36;9.47;;;6.37;;
9496;SDS011;4786;51.270;4.456;2022-10-17T10:57:07;6.67;;;6.13;;
9496;SDS011;4786;51.270;4.456;2022-10-17T11:00:02;6.80;;;6.10;;
9496;SDS011;4786;51.270;4.456;2022-10-17T11:05:45;8.57;;;7.30;;
9496;SDS011;4786;51.270;4.456;2022-10-17T11:08:47;13.50;;;7.50;;
9496;SDS011;4786;51.270;4.456;2022-10-17T11:11:26;9.80;;;7.93;;
9496;SDS011;4786;51.270;4.456;2022-10-17T11:14:14;10.80;;;7.00;;
9496;SDS011;4786;51.270;4.456;2022-10-17T11:22:31;9.15;;;7.05;;
9496;SDS011;4786;51.270;4.456;2022-10-17T11:27:37;14.18;;;7.72;;
9496;SDS011;4786;51.270;4.456;2022-10-17T11:30:02;10.50;;;6.50;;
9496;SDS011;4786;51.270;4.456;2022-10-17T11:32:49;7.70;;;6.45;;
9496;SDS011;4786;51.270;4.456;2022-10-17T11:35:27;10.68;;;6.43;;
9496;SDS011;4786;51.270;4.456;2022-10-17T11:40:50;7.17;;;5.00;;
9496;SDS011;4786;51.270;4.456;2022-10-17T11:45:54;8.80;;;4.97;;
9496;SDS011;4786;51.270;4.456;2022-10-17T11:51:08;4.65;;;4.22;;
9496;SDS011;4786;51.270;4.456;2022-10-17T11:56:41;5.30;;;4.47;;
9496;SDS011;4786;51.270;4.456;2022-10-17T12:01:51;4.15;;;3.60;;
9496;SDS011;4786;51.270;4.456;2022-10-17T12:04:39;9.35;;;4.20;;
9496;SDS011;4786;51.270;4.456;2022-10-17T12:07:37;4.28;;;3.47;;
9496;SDS011;4786;51.270;4.456;2022-10-17T12:15:53;6.55;;;3.78;;
9496;SDS011;4786;51.270;4.456;2022-10-17T12:18:23;5.88;;;3.95;;
9496;SDS011;4786;51.270;4.456;2022-10-17T12:20:58;5.05;;;4.18;;
9496;SDS011;4786;51.270;4.456;2022-10-17T12:23:31;4.50;;;3.53;;
9496;SDS011;4786;51.270;4.456;2022-10-17T12:26:01;8.70;;;4.05;;
9496;SDS011;4786;51.270;4.456;2022-10-17T12:28:42;4.60;;;3.58;;
9496;SDS011;4786;51.270;4.456;2022-10-17T12:33:47;8.63;;;4.82;;
9496;SDS011;4786;51.270;4.456;2022-10-17T12:44:34;4.97;;;4.47;;
9496;SDS011;4786;51.270;4.456;2022-10-17T12:49:23;6.50;;;5.15;;
9496;SDS011;4786;51.270;4.456;2022-10-17T12:55:15;5.85;;;5.05;;
9496;SDS011;4786;51.270;4.456;2022-10-17T13:03:18;8.15;;;5.78;;
9496;SDS011;4786;51.270;4.456;2022-10-17T13:05:48;9.02;;;5.53;;
9496;SDS011;4786;51.270;4.456;2022-10-17T13:08:23;7.00;;;5.00;;
9496;SDS011;4786;51.270;4.456;2022-10-17T13:10:53;8.25;;;6.03;;
9496;SDS011;4786;51.270;4.456;2022-10-17T13:18:57;10.38;;;5.70;;
9496;SDS011;4786;51.270;4.456;2022-10-17T13:21:24;6.85;;;5.30;;
9496;SDS011;4786;51.270;4.456;2022-10-17T13:23:50;7.18;;;5.40;;
9496;SDS011;4786;51.270;4.456;2022-10-17T13:29:10;7.20;;;4.68;;
9496;SDS011;4786;51.270;4.456;2022-10-17T13:31:39;9.10;;;5.50;;
9496;SDS011;4786;51.270;4.456;2022-10-17T13:34:15;8.00;;;5.03;;
9496;SDS011;4786;51.270;4.456;2022-10-17T13:36:47;5.78;;;5.25;;
9496;SDS011;4786;51.270;4.456;2022-10-17T13:39:17;8.07;;;6.15;;
9496;SDS011;4786;51.270;4.456;2022-10-17T13:41:45;9.82;;;6.60;;
9496;SDS011;4786;51.270;4.456;2022-10-17T13:44:13;9.95;;;6.03;;
9496;SDS011;4786;51.270;4.456;2022-10-17T13:46:42;7.38;;;6.38;;
9496;SDS011;4786;51.270;4.456;2022-10-17T13:49:09;8.48;;;6.47;;
9496;SDS011;4786;51.270;4.456;2022-10-17T13:51:46;7.78;;;5.63;;
9496;SDS011;4786;51.270;4.456;2022-10-17T13:54:33;9.55;;;6.25;;
9496;SDS011;4786;51.270;4.456;2022-10-17T13:57:00;5.97;;;5.40;;
9496;SDS011;4786;51.270;4.456;2022-10-17T13:59:28;5.97;;;5.38;;
9496;SDS011;4786;51.270;4.456;2022-10-17T14:02:21;7.60;;;5.90;;
9496;SDS011;4786;51.270;4.456;2022-10-17T14:10:05;8.50;;;5.60;;
9496;SDS011;4786;51.270;4.456;2022-10-17T14:12:46;5.80;;;5.25;;
9496;SDS011;4786;51.270;4.456;2022-10-17T14:15:13;8.32;;;5.90;;
9496;SDS011;4786;51.270;4.456;2022-10-17T14:17:40;6.30;;;4.93;;
9496;SDS011;4786;51.270;4.456;2022-10-17T14:20:16;7.28;;;5.45;;
9496;SDS011;4786;51.270;4.456;2022-10-17T14:22:43;9.85;;;5.88;;
9496;SDS011;4786;51.270;4.456;2022-10-17T14:30:46;7.18;;;4.90;;
9496;SDS011;4786;51.270;4.456;2022-10-17T14:33:22;7.43;;;4.88;;
9496;SDS011;4786;51.270;4.456;2022-10-17T14:35:48;4.97;;;4.50;;
9496;SDS011;4786;51.270;4.456;2022-10-17T14:38:16;5.88;;;4.07;;
9496;SDS011;4786;51.270;4.456;2022-10-17T14:40:57;5.07;;;4.57;;
9496;SDS011;4786;51.270;4.456;2022-10-17T14:43:27;8.27;;;5.25;;
9496;SDS011;4786;51.270;4.456;2022-10-17T14:45:58;5.40;;;4.78;;
9496;SDS011;4786;51.270;4.456;2022-10-17T14:48:25;6.18;;;5.10;;
9496;SDS011;4786;51.270;4.456;2022-10-17T14:51:10;7.85;;;5.60;;
9496;SDS011;4786;51.270;4.456;2022-10-17T14:53:42;6.20;;;4.80;;
9496;SDS011;4786;51.270;4.456;2022-10-17T14:56:26;4.60;;;4.00;;
9496;SDS011;4786;51.270;4.456;2022-10-17T14:59:05;5.55;;;4.25;;
9496;SDS011;4786;51.270;4.456;2022-10-17T15:01:31;5.57;;;4.85;;
9496;SDS011;4786;51.270;4.456;2022-10-17T15:03:58;5.80;;;4.80;;
9496;SDS011;4786;51.270;4.456;2022-10-17T15:06:32;5.35;;;4.13;;
9496;SDS011;4786;51.270;4.456;2022-10-17T15:08:59;5.25;;;4.13;;
9496;SDS011;4786;51.270;4.456;2022-10-17T15:11:25;6.78;;;4.45;;
9496;SDS011;4786;51.270;4.456;2022-10-17T15:13:51;4.72;;;4.22;;
9496;SDS011;4786;51.270;4.456;2022-10-17T15:16:18;5.20;;;4.47;;
9496;SDS011;4786;51.270;4.456;2022-10-17T15:18:54;6.97;;;4.50;;
9496;SDS011;4786;51.270;4.456;2022-10-17T15:21:21;7.90;;;5.00;;
9496;SDS011;4786;51.270;4.456;2022-10-17T15:23:49;10.38;;;5.13;;
9496;SDS011;4786;51.270;4.456;2022-10-17T15:26:25;5.97;;;4.88;;
9496;SDS011;4786;51.270;4.456;2022-10-17T15:28:55;7.10;;;6.15;;
9496;SDS011;4786;51.270;4.456;2022-10-17T15:31:21;6.03;;;5.53;;
9496;SDS011;4786;51.270;4.456;2022-10-17T15:33:48;7.38;;;4.95;;
9496;SDS011;4786;51.270;4.456;2022-10-17T15:36:30;8.02;;;5.90;;
9496;SDS011;4786;51.270;4.456;2022-10-17T15:39:01;7.10;;;5.07;;
9496;SDS011;4786;51.270;4.456;2022-10-17T15:41:29;7.43;;;5.60;;
9496;SDS011;4786;51.270;4.456;2022-10-17T15:43:55;5.82;;;4.70;;
9496;SDS011;4786;51.270;4.456;2022-10-17T15:46:23;10.52;;;5.30;;
9496;SDS011;4786;51.270;4.456;2022-10-17T15:48:52;6.35;;;5.20;;
9496;SDS011;4786;51.270;4.456;2022-10-17T15:51:19;5.85;;;4.70;;
9496;SDS011;4786;51.270;4.456;2022-10-17T15:53:46;13.52;;;11.25;;
9496;SDS011;4786;51.270;4.456;2022-10-17T15:56:22;14.05;;;12.75;;
9496;SDS011;4786;51.270;4.456;2022-10-17T15:58:52;11.02;;;9.82;;
9496;SDS011;4786;51.270;4.456;2022-10-17T16:01:37;7.30;;;6.07;;
9496;SDS011;4786;51.270;4.456;2022-10-17T16:04:04;9.00;;;6.10;;
9496;SDS011;4786;51.270;4.456;2022-10-17T16:06:29;8.88;;;5.75;;
9496;SDS011;4786;51.270;4.456;2022-10-17T16:08:55;5.63;;;4.93;;
9496;SDS011;4786;51.270;4.456;2022-10-17T16:11:31;6.60;;;5.30;;
9496;SDS011;4786;51.270;4.456;2022-10-17T16:14:03;6.13;;;5.10;;
9496;SDS011;4786;51.270;4.456;2022-10-17T16:16:37;6.57;;;5.35;;
9496;SDS011;4786;51.270;4.456;2022-10-17T16:19:04;6.07;;;4.97;;
9496;SDS011;4786;51.270;4.456;2022-10-17T16:21:31;6.80;;;5.53;;
9496;SDS011;4786;51.270;4.456;2022-10-17T16:23:59;6.27;;;5.00;;
9496;SDS011;4786;51.270;4.456;2022-10-17T16:26:25;7.83;;;4.57;;
9496;SDS011;4786;51.270;4.456;2022-10-17T16:28:51;6.37;;;5.00;;
9496;SDS011;4786;51.270;4.456;2022-10-17T16:33:51;5.15;;;4.60;;
9496;SDS011;4786;51.270;4.456;2022-10-17T16:36:18;5.77;;;4.83;;
9496;SDS011;4786;51.270;4.456;2022-10-17T16:38:45;6.57;;;4.90;;
9496;SDS011;4786;51.270;4.456;2022-10-17T16:43:54;5.57;;;4.77;;
9496;SDS011;4786;51.270;4.456;2022-10-17T16:46:22;6.97;;;5.10;;
9496;SDS011;4786;51.270;4.456;2022-10-17T16:48:49;5.03;;;4.53;;
9496;SDS011;4786;51.270;4.456;2022-10-17T16:51:16;5.17;;;4.67;;
9496;SDS011;4786;51.270;4.456;2022-10-17T16:53:43;7.63;;;5.53;;
9496;SDS011;4786;51.270;4.456;2022-10-17T16:56:11;5.47;;;4.43;;
9496;SDS011;4786;51.270;4.456;2022-10-17T16:58:39;7.03;;;5.33;;
9496;SDS011;4786;51.270;4.456;2022-10-17T17:01:10;5.10;;;4.70;;
9496;SDS011;4786;51.270;4.456;2022-10-17T17:03:39;6.47;;;4.90;;
9496;SDS011;4786;51.270;4.456;2022-10-17T17:06:06;6.20;;;4.93;;
9496;SDS011;4786;51.270;4.456;2022-10-17T17:08:36;6.47;;;5.00;;
9496;SDS011;4786;51.270;4.456;2022-10-17T17:11:02;7.70;;;5.30;;
9496;SDS011;4786;51.270;4.456;2022-10-17T17:13:31;7.07;;;4.30;;
9496;SDS011;4786;51.270;4.456;2022-10-17T17:18:38;5.63;;;5.00;;
9496;SDS011;4786;51.270;4.456;2022-10-17T17:21:05;7.13;;;5.17;;
9496;SDS011;4786;51.270;4.456;2022-10-17T17:23:33;7.03;;;5.03;;
9496;SDS011;4786;51.270;4.456;2022-10-17T17:26:01;7.63;;;5.03;;
9496;SDS011;4786;51.270;4.456;2022-10-17T17:28:29;6.10;;;5.43;;
9496;SDS011;4786;51.270;4.456;2022-10-17T17:30:57;7.60;;;6.00;;
9496;SDS011;4786;51.270;4.456;2022-10-17T17:33:23;6.40;;;5.43;;
9496;SDS011;4786;51.270;4.456;2022-10-17T17:35:53;6.67;;;5.93;;
9496;SDS011;4786;51.270;4.456;2022-10-17T17:38:21;8.47;;;5.50;;
9496;SDS011;4786;51.270;4.456;2022-10-17T17:40:47;6.80;;;5.77;;
9496;SDS011;4786;51.270;4.456;2022-10-17T17:43:13;7.03;;;5.40;;
9496;SDS011;4786;51.270;4.456;2022-10-17T17:45:39;7.50;;;5.50;;
9496;SDS011;4786;51.270;4.456;2022-10-17T17:48:05;5.93;;;5.33;;
9496;SDS011;4786;51.270;4.456;2022-10-17T17:50:31;6.87;;;5.43;;
9496;SDS011;4786;51.270;4.456;2022-10-17T17:52:57;5.93;;;5.33;;
9496;SDS011;4786;51.270;4.456;2022-10-17T17:55:24;7.83;;;5.90;;
9496;SDS011;4786;51.270;4.456;2022-10-17T17:57:50;9.03;;;6.07;;
9496;SDS011;4786;51.270;4.456;2022-10-17T18:00:16;8.17;;;6.20;;
9496;SDS011;4786;51.270;4.456;2022-10-17T18:02:42;8.20;;;6.33;;
9496;SDS011;4786;51.270;4.456;2022-10-17T18:05:08;9.93;;;6.43;;
9496;SDS011;4786;51.270;4.456;2022-10-17T18:07:35;7.53;;;6.70;;
9496;SDS011;4786;51.270;4.456;2022-10-17T18:10:02;12.57;;;8.03;;
9496;SDS011;4786;51.270;4.456;2022-10-17T18:12:29;10.57;;;7.33;;